Highland Park, Louisiana
Current Conditions -  °F | °C
As of 7:53 PM on Saturday 22 Nov 2014 (Local Time) from KMLU Reporting Station
Clear Clear  
Wind Chill: 64°   Ceiling: Unl
Heat Index: 64°   Visibility: 10mi
Dew Point: 57°   Wind: 7mph
Humidity: 78%   Direction: 140°SE
Pressure: 29.95"   Gusts: NA
Location:  32.5473°N, 92.2007°W
Report Text: KMLU 230153Z 14006KT 10SM CLR 18/14 A2995 RMK AO2 SLP140 T01780139
Loading
Personal Weather Stations






























Interactive Weather Map New forecast layout! Learn more

10-Day Weather Forecast

Advertisements
Track Severe Weather on mobile